PILOTS ONLINE: 469    ATC ONLINE: 64

KSNA - John Wayne Airport-Orange County Airport

Location

IATA SNA
City Santa Ana
Country  United States
Latitude 33° 40' 32" N
Longitude 117° 52' 4" W
Elevation 56 ft
Type Large Airport

Runways

01L/19R 5700 ft / 150 ft
01R/19L 2887 ft / 75 ft

Weather

METAR
2014/07/24 13:53
KSNA 241353Z 00000KT 9SM SCT006 SCT300 21/18 A2987 RMK AO2 SLP112 T02110178
TAF
2014/07/24 14:48
TAF 
      AMD KSNA 241342Z 2414/2512 VRB04KT P6SM SCT006 
      TEMPO 2414/2415 BKN006 
     FM241500 VRB04KT P6SM SKC 
     FM242000 22010KT P6SM SCT250 
     FM250300 VRB04KT P6SM SCT250

Outbound flights

Inbound flights